Time;durP1;ratioP1;P1;durP2;ratioP2;P2;SDS_P1;SDS_P2;PMS_P1;PMS_P2;Temp;Humidity;BMP_temperature;BMP_pressure;BME280_temperature;BME280_humidity;BME280_pressure;Samples;Min_cycle;Max_cycle;Signal;HPM_P1;HPM_P2
2021/07/14 00:00:23;;;;;;;1.53;0.90;;;20.40;98.20;;;;;;4995396;28;20469;-79
2021/07/14 00:02:50;;;;;;;1.50;0.90;;;20.30;98.20;;;;;;4994301;28;20485;-79
2021/07/14 00:05:19;;;;;;;1.53;1.00;;;20.30;98.20;;;;;;4995013;28;20481;-76
2021/07/14 00:07:48;;;;;;;1.50;1.00;;;20.20;98.20;;;;;;4994545;28;20472;-79
2021/07/14 00:10:18;;;;;;;1.50;0.90;;;20.20;98.20;;;;;;4993832;28;20469;-78
2021/07/14 00:12:52;;;;;;;1.60;1.10;;;20.10;98.20;;;;;;4991847;28;20465;-78
2021/07/14 00:23:40;;;;;;;1.57;0.90;;;20.00;98.20;;;;;;4988891;28;20573;-78
2021/07/14 00:26:06;;;;;;;1.50;0.90;;;20.00;98.20;;;;;;4993182;28;20493;-77
2021/07/14 00:28:35;;;;;;;1.50;0.90;;;20.00;98.20;;;;;;4992319;28;20469;-78
2021/07/14 00:31:02;;;;;;;1.50;0.90;;;19.90;98.20;;;;;;4992742;28;20473;-78
2021/07/14 00:33:30;;;;;;;1.50;0.90;;;19.80;98.20;;;;;;4995021;28;20548;-77
2021/07/14 00:35:57;;;;;;;1.50;0.90;;;19.80;98.20;;;;;;4993398;28;20507;-79
2021/07/14 00:38:23;;;;;;;1.53;1.00;;;19.70;98.20;;;;;;4989618;28;20834;-79
2021/07/14 00:40:51;;;;;;;1.50;0.90;;;19.70;98.20;;;;;;4993804;28;20470;-79
2021/07/14 00:43:18;;;;;;;1.50;0.90;;;19.70;98.20;;;;;;4993566;28;20494;-76
2021/07/14 00:45:45;;;;;;;1.50;0.90;;;19.70;98.20;;;;;;4993222;28;20492;-77
2021/07/14 00:48:13;;;;;;;1.50;0.90;;;19.70;98.20;;;;;;4991790;28;20472;-78
2021/07/14 00:50:40;;;;;;;1.53;0.90;;;19.70;98.20;;;;;;4991684;28;20664;-79
2021/07/14 00:53:07;;;;;;;1.53;0.90;;;19.80;98.20;;;;;;4992142;28;20473;-79
2021/07/14 00:55:34;;;;;;;1.50;0.90;;;19.80;98.20;;;;;;4992340;28;20493;-78
2021/07/14 00:58:02;;;;;;;1.50;0.90;;;19.80;98.20;;;;;;4991674;28;20472;-79
2021/07/14 01:00:29;;;;;;;1.53;1.00;;;19.80;98.20;;;;;;4993092;28;20465;-78
2021/07/14 01:02:56;;;;;;;1.53;0.90;;;19.80;98.20;;;;;;4991103;28;20481;-78
2021/07/14 01:05:30;;;;;;;1.53;0.90;;;19.80;98.20;;;;;;4990513;28;20489;-78
2021/07/14 01:07:59;;;;;;;1.50;0.90;;;19.80;98.20;;;;;;4989910;28;20519;-78
2021/07/14 01:10:31;;;;;;;1.57;0.90;;;19.70;98.20;;;;;;4989825;28;20840;-77
2021/07/14 01:13:03;;;;;;;1.50;0.90;;;19.70;98.20;;;;;;4988070;28;20457;-78
2021/07/14 01:15:37;;;;;;;1.57;0.90;;;19.70;98.20;;;;;;4993461;28;20856;-76
2021/07/14 01:18:12;;;;;;;1.50;0.90;;;19.60;98.20;;;;;;4990058;28;20461;-79
2021/07/14 01:20:59;;;;;;;1.53;1.00;;;19.50;98.20;;;;;;4990613;28;20461;-77
2021/07/14 01:23:42;;;;;;;1.53;0.90;;;19.50;98.20;;;;;;4991027;28;20484;-80
2021/07/14 01:26:22;;;;;;;1.53;0.90;;;19.40;98.20;;;;;;4991407;28;20491;-79
2021/07/14 01:28:54;;;;;;;1.50;1.00;;;19.40;98.20;;;;;;4986300;28;21342;-80
2021/07/14 01:31:23;;;;;;;1.50;0.90;;;19.30;98.20;;;;;;4988563;28;20465;-79
2021/07/14 01:33:55;;;;;;;1.53;0.90;;;19.30;98.20;;;;;;4991686;28;20488;-80
2021/07/14 01:36:24;;;;;;;1.57;1.00;;;19.30;98.20;;;;;;4991402;28;20520;-80
2021/07/14 01:38:50;;;;;;;1.50;0.90;;;19.30;98.20;;;;;;4991864;28;20457;-81
2021/07/14 01:41:20;;;;;;;1.53;0.90;;;19.30;98.20;;;;;;4988583;28;21034;-79
2021/07/14 01:43:52;;;;;;;1.60;1.00;;;19.30;98.20;;;;;;4988691;28;21012;-80
2021/07/14 01:46:21;;;;;;;1.53;0.90;;;19.20;98.20;;;;;;4981118;28;20507;-81
2021/07/14 01:48:50;;;;;;;1.50;0.90;;;19.30;98.20;;;;;;4988975;28;20492;-80
2021/07/14 01:51:18;;;;;;;1.53;0.90;;;19.30;98.20;;;;;;4988912;28;20461;-80
2021/07/14 01:53:46;;;;;;;1.60;1.00;;;19.30;98.20;;;;;;4990225;28;20458;-80
2021/07/14 01:56:14;;;;;;;1.53;1.00;;;19.30;98.20;;;;;;4983820;28;20520;-81
2021/07/14 01:58:43;;;;;;;1.57;0.90;;;19.30;98.20;;;;;;4984653;28;20489;-79
2021/07/14 02:01:14;;;;;;;1.53;0.90;;;19.30;98.20;;;;;;4987657;28;21150;-81
2021/07/14 02:03:55;;;;;;;1.50;0.90;;;19.30;98.20;;;;;;4987527;28;20580;-78
2021/07/14 02:06:23;;;;;;;1.57;0.90;;;19.30;98.20;;;;;;4988042;28;20488;-79
2021/07/14 02:08:50;;;;;;;1.57;0.90;;;19.20;98.20;;;;;;4989634;28;20555;-80
2021/07/14 02:11:23;;;;;;;1.50;1.00;;;19.20;98.20;;;;;;4986443;28;20467;-79
2021/07/14 02:13:53;;;;;;;1.57;0.90;;;19.10;98.20;;;;;;4991154;28;20461;-78
2021/07/14 02:16:23;;;;;;;1.53;0.90;;;19.10;98.20;;;;;;4986241;28;20570;-79
2021/07/14 02:18:55;;;;;;;1.57;0.90;;;19.10;98.20;;;;;;4990515;28;20927;-77
2021/07/14 02:21:22;;;;;;;1.53;0.90;;;19.10;98.20;;;;;;4993534;28;21014;-78
2021/07/14 02:23:49;;;;;;;1.53;0.90;;;19.10;98.20;;;;;;4991364;28;20489;-79
2021/07/14 02:26:16;;;;;;;1.50;0.90;;;19.10;98.20;;;;;;4985863;28;20492;-80
2021/07/14 02:28:43;;;;;;;1.60;1.00;;;19.10;98.20;;;;;;4990451;28;20492;-79
2021/07/14 02:31:10;;;;;;;1.53;0.90;;;19.10;98.20;;;;;;4985313;28;20468;-80
2021/07/14 02:33:38;;;;;;;1.53;0.90;;;19.10;98.20;;;;;;4991336;28;20472;-79
2021/07/14 02:36:10;;;;;;;1.57;1.00;;;19.10;98.20;;;;;;4989165;28;20507;-79
2021/07/14 02:38:40;;;;;;;1.53;0.90;;;19.00;98.20;;;;;;4986736;28;20469;-80
2021/07/14 02:41:14;;;;;;;1.60;1.00;;;19.10;98.20;;;;;;4994071;28;20464;-81
2021/07/14 02:43:45;;;;;;;1.53;1.00;;;19.10;98.20;;;;;;4991934;28;20496;-81
2021/07/14 02:46:23;;;;;;;1.50;0.90;;;19.10;98.20;;;;;;4999901;28;21021;-80
2021/07/14 02:48:53;;;;;;;1.53;1.00;;;19.10;98.20;;;;;;4988695;28;20508;-81
2021/07/14 02:51:22;;;;;;;1.50;0.90;;;19.10;98.20;;;;;;4993845;28;20555;-81
2021/07/14 02:53:51;;;;;;;1.57;0.93;;;19.00;98.20;;;;;;4996695;28;20461;-79
2021/07/14 02:56:21;;;;;;;1.50;0.90;;;19.10;98.20;;;;;;4988864;28;21031;-79
2021/07/14 02:58:52;;;;;;;1.53;0.90;;;19.10;98.20;;;;;;4995833;28;20476;-80
2021/07/14 03:01:21;;;;;;;1.53;0.90;;;19.10;98.20;;;;;;4989943;28;20473;-78
2021/07/14 03:03:50;;;;;;;1.57;0.90;;;19.10;98.20;;;;;;4990675;28;20992;-79
2021/07/14 03:06:18;;;;;;;1.53;0.97;;;19.10;98.20;;;;;;4990334;28;20481;-78
2021/07/14 03:08:48;;;;;;;1.50;0.97;;;19.10;98.20;;;;;;4991146;28;20468;-79
2021/07/14 03:11:15;;;;;;;1.53;0.90;;;19.20;98.20;;;;;;4988513;28;20458;-78
2021/07/14 03:13:45;;;;;;;1.57;1.00;;;19.20;98.20;;;;;;4988028;28;20469;-79
2021/07/14 03:16:13;;;;;;;1.50;0.90;;;19.20;98.20;;;;;;4994486;28;20488;-80
2021/07/14 03:18:46;;;;;;;1.60;1.00;;;19.20;98.20;;;;;;4990786;28;20467;-78
2021/07/14 03:21:13;;;;;;;1.57;0.90;;;19.20;98.20;;;;;;4989848;28;20853;-78
2021/07/14 03:23:41;;;;;;;1.53;0.90;;;19.20;98.20;;;;;;4988878;28;20481;-79
2021/07/14 03:26:08;;;;;;;1.57;1.00;;;19.20;98.20;;;;;;4989302;28;20740;-79
2021/07/14 03:28:38;;;;;;;1.50;0.90;;;19.20;98.20;;;;;;4988987;28;20461;-79
2021/07/14 03:31:06;;;;;;;1.53;1.00;;;19.20;98.20;;;;;;4988620;28;20981;-79
2021/07/14 03:33:34;;;;;;;1.50;0.90;;;19.20;98.20;;;;;;4988343;28;20532;-79
2021/07/14 03:36:02;;;;;;;1.57;0.90;;;19.20;98.20;;;;;;4986364;28;21022;-79
2021/07/14 03:38:30;;;;;;;1.50;1.00;;;19.20;98.20;;;;;;4990096;28;20932;-80
2021/07/14 03:40:59;;;;;;;1.50;0.90;;;19.20;98.20;;;;;;4986890;28;20473;-79
2021/07/14 03:43:27;;;;;;;1.50;0.90;;;19.20;98.20;;;;;;4988208;28;20473;-78
2021/07/14 03:45:56;;;;;;;1.57;1.00;;;19.20;98.20;;;;;;4986878;28;20488;-82
2021/07/14 03:48:24;;;;;;;1.53;0.90;;;19.20;98.20;;;;;;4989247;28;20839;-81
2021/07/14 03:50:53;;;;;;;1.53;0.90;;;19.20;98.20;;;;;;4989750;28;20476;-81
2021/07/14 03:53:23;;;;;;;1.50;0.90;;;19.20;98.20;;;;;;4993267;28;20468;-81
2021/07/14 03:55:50;;;;;;;1.53;0.90;;;19.20;98.20;;;;;;4978137;28;20516;-80
2021/07/14 03:58:18;;;;;;;1.50;0.90;;;19.20;98.20;;;;;;4989431;28;20472;-82
2021/07/14 04:00:45;;;;;;;1.50;0.90;;;19.20;98.20;;;;;;4989692;28;20457;-78
2021/07/14 04:03:13;;;;;;;1.53;0.90;;;19.20;98.20;;;;;;4989424;28;20561;-82
2021/07/14 04:05:42;;;;;;;1.50;1.00;;;19.20;98.20;;;;;;4985942;28;20499;-81
2021/07/14 04:08:11;;;;;;;1.50;0.97;;;19.20;98.20;;;;;;4983616;28;20551;-81
2021/07/14 04:10:38;;;;;;;1.50;1.00;;;19.20;98.20;;;;;;4988057;28;20467;-81
2021/07/14 04:13:05;;;;;;;1.57;1.00;;;19.20;98.20;;;;;;4988594;28;21127;-81
2021/07/14 04:15:33;;;;;;;1.50;1.00;;;19.20;98.20;;;;;;4990652;28;20494;-80
2021/07/14 04:18:00;;;;;;;1.53;0.93;;;19.20;98.20;;;;;;4990648;28;20843;-80
2021/07/14 04:20:27;;;;;;;1.50;0.90;;;19.30;98.20;;;;;;4992105;28;20457;-81
2021/07/14 04:22:55;;;;;;;1.50;1.00;;;19.30;98.20;;;;;;4991157;28;20465;-82
2021/07/14 04:25:21;;;;;;;1.53;0.93;;;19.30;98.20;;;;;;4989138;28;20548;-79
2021/07/14 04:27:48;;;;;;;1.50;0.90;;;19.30;98.20;;;;;;4991151;28;20470;-81
2021/07/14 04:30:16;;;;;;;1.50;0.90;;;19.30;98.20;;;;;;4991081;28;20470;-83
2021/07/14 04:32:45;;;;;;;1.50;0.90;;;19.30;98.20;;;;;;4987092;28;20540;-79
2021/07/14 04:35:12;;;;;;;1.50;0.90;;;19.30;98.20;;;;;;4989923;28;20488;-81
2021/07/14 04:37:42;;;;;;;1.57;0.90;;;19.20;98.20;;;;;;4994187;28;20489;-81
2021/07/14 04:40:10;;;;;;;1.50;0.90;;;19.20;98.20;;;;;;4989914;28;20505;-80
2021/07/14 04:42:37;;;;;;;1.53;0.90;;;19.20;98.20;;;;;;4989373;28;20859;-80
2021/07/14 04:45:05;;;;;;;1.50;0.90;;;19.20;98.20;;;;;;4989996;28;20493;-80
2021/07/14 04:47:32;;;;;;;1.53;0.90;;;19.20;98.20;;;;;;4986159;28;20972;-77
2021/07/14 04:50:00;;;;;;;1.50;0.90;;;19.20;98.20;;;;;;4991664;28;20468;-77
2021/07/14 04:52:27;;;;;;;1.60;1.00;;;19.20;98.20;;;;;;4989931;28;20457;-79
2021/07/14 04:54:54;;;;;;;1.53;0.90;;;19.20;98.20;;;;;;4989724;28;20493;-79
2021/07/14 04:57:21;;;;;;;1.53;0.90;;;19.20;98.20;;;;;;4990601;28;20461;-78
2021/07/14 04:59:48;;;;;;;1.53;0.90;;;19.20;98.20;;;;;;4995310;28;20468;-79
2021/07/14 05:02:15;;;;;;;1.50;1.00;;;19.10;98.20;;;;;;4995127;28;20461;-81
2021/07/14 05:04:42;;;;;;;1.50;1.00;;;19.10;98.20;;;;;;4996151;28;20571;-80
2021/07/14 05:07:11;;;;;;;1.53;1.00;;;19.10;98.20;;;;;;4997197;28;21042;-80
2021/07/14 05:09:38;;;;;;;1.53;0.90;;;19.10;98.20;;;;;;4989621;28;20689;-79
2021/07/14 05:12:05;;;;;;;1.57;0.90;;;19.10;98.20;;;;;;4995819;28;20487;-79
2021/07/14 05:14:33;;;;;;;1.53;0.90;;;19.10;98.20;;;;;;4996422;28;20524;-80
2021/07/14 05:17:00;;;;;;;1.53;0.90;;;19.10;98.20;;;;;;4997622;28;20471;-80
2021/07/14 05:19:27;;;;;;;1.50;0.90;;;19.10;98.20;;;;;;4990796;28;20465;-81
2021/07/14 05:21:54;;;;;;;1.53;1.00;;;19.10;98.20;;;;;;4991232;28;20465;-81
2021/07/14 05:24:22;;;;;;;1.50;0.90;;;19.10;98.20;;;;;;4994793;28;20495;-80
2021/07/14 05:26:49;;;;;;;1.53;1.00;;;19.10;98.20;;;;;;4996465;28;21100;-81
2021/07/14 05:29:16;;;;;;;1.60;1.00;;;19.10;98.20;;;;;;4995261;28;20471;-81
2021/07/14 05:31:43;;;;;;;1.53;0.90;;;19.10;98.20;;;;;;4996200;28;20506;-81
2021/07/14 05:34:11;;;;;;;1.50;0.90;;;19.10;98.20;;;;;;4995634;28;20474;-81
2021/07/14 05:36:38;;;;;;;1.53;1.00;;;19.10;98.20;;;;;;4996120;28;20489;-81
2021/07/14 05:39:05;;;;;;;1.53;0.90;;;19.10;98.20;;;;;;4996028;28;20467;-80
2021/07/14 05:41:34;;;;;;;1.53;0.90;;;19.10;98.20;;;;;;4995644;28;20552;-79
2021/07/14 05:44:00;;;;;;;1.57;0.97;;;19.10;98.20;;;;;;4995599;28;20731;-80
2021/07/14 05:46:27;;;;;;;1.53;0.90;;;19.10;98.20;;;;;;4992108;28;20481;-79
2021/07/14 05:48:55;;;;;;;1.50;0.90;;;19.10;98.20;;;;;;4995638;28;20987;-81
2021/07/14 05:51:22;;;;;;;1.53;0.90;;;19.10;98.20;;;;;;4993421;28;20552;-81
2021/07/14 05:53:49;;;;;;;1.57;1.00;;;19.10;98.20;;;;;;4984744;28;20449;-83
2021/07/14 05:56:16;;;;;;;1.53;0.90;;;19.10;98.20;;;;;;4990263;28;21012;-84
2021/07/14 05:58:44;;;;;;;1.50;0.90;;;19.10;98.20;;;;;;4992475;28;20887;-82
2021/07/14 06:02:05;;;;;;;1.53;0.90;;;19.10;98.20;;;;;;4991613;28;20457;-81
2021/07/14 06:04:32;;;;;;;1.57;0.90;;;19.20;98.20;;;;;;4993930;28;20481;-83
2021/07/14 06:07:01;;;;;;;1.53;0.97;;;19.20;98.20;;;;;;4988323;28;20536;-83
2021/07/14 06:09:28;;;;;;;1.57;0.90;;;19.20;98.20;;;;;;4991428;28;20919;-83
2021/07/14 06:12:05;;;;;;;1.53;1.00;;;19.20;98.20;;;;;;4994436;28;20461;-84
2021/07/14 06:14:33;;;;;;;1.50;0.97;;;19.20;98.20;;;;;;4985216;28;20466;-83
2021/07/14 06:17:00;;;;;;;1.53;0.90;;;19.20;98.20;;;;;;4991595;28;20507;-83
2021/07/14 06:19:28;;;;;;;1.57;0.90;;;19.20;98.20;;;;;;4988323;28;20463;-83
2021/07/14 06:21:55;;;;;;;1.53;0.97;;;19.20;98.20;;;;;;4990341;28;20918;-82
2021/07/14 06:24:22;;;;;;;1.53;0.90;;;19.20;98.20;;;;;;4988705;28;20476;-82
2021/07/14 06:26:50;;;;;;;1.57;1.00;;;19.30;98.20;;;;;;4995725;28;20465;-81
2021/07/14 06:29:17;;;;;;;1.53;0.97;;;19.30;98.20;;;;;;4997706;28;20491;-82
2021/07/14 06:31:46;;;;;;;1.53;0.90;;;19.30;98.20;;;;;;4995772;28;20483;-81
2021/07/14 06:34:13;;;;;;;1.50;1.00;;;19.30;98.20;;;;;;4991671;28;20465;-82
2021/07/14 06:36:40;;;;;;;1.57;0.90;;;19.40;98.20;;;;;;4989564;28;20513;-82
2021/07/14 06:39:07;;;;;;;1.53;0.90;;;19.40;98.20;;;;;;4992683;28;20468;-83
2021/07/14 06:41:34;;;;;;;1.50;0.90;;;19.40;98.20;;;;;;4992902;28;20504;-82
2021/07/14 06:44:02;;;;;;;1.53;0.90;;;19.40;98.20;;;;;;4994779;28;20469;-82
2021/07/14 06:46:29;;;;;;;1.50;0.90;;;19.50;98.20;;;;;;4995753;28;20489;-82
2021/07/14 06:48:58;;;;;;;1.53;0.90;;;19.50;98.20;;;;;;4990272;28;20971;-81
2021/07/14 06:51:25;;;;;;;1.50;0.90;;;19.50;98.20;;;;;;4990153;28;20491;-82
2021/07/14 06:53:52;;;;;;;1.53;1.00;;;19.50;98.20;;;;;;4992945;28;20506;-81
2021/07/14 06:56:19;;;;;;;1.50;0.90;;;19.60;98.20;;;;;;4990012;28;20485;-81
2021/07/14 06:58:46;;;;;;;1.50;0.90;;;19.60;98.20;;;;;;4993858;28;20461;-82
2021/07/14 07:01:14;;;;;;;1.53;0.90;;;19.60;98.20;;;;;;4995423;28;20489;-78
2021/07/14 07:03:41;;;;;;;1.53;0.97;;;19.60;98.20;;;;;;4994537;28;20536;-78
2021/07/14 07:06:10;;;;;;;1.60;1.00;;;19.60;98.20;;;;;;4994312;28;20481;-78
2021/07/14 07:08:37;;;;;;;1.53;1.00;;;19.60;98.20;;;;;;4996717;28;20477;-78
2021/07/14 07:11:05;;;;;;;1.50;0.90;;;19.60;98.20;;;;;;4994868;28;20465;-80
2021/07/14 07:13:32;;;;;;;1.60;0.90;;;19.60;98.20;;;;;;4991552;28;20500;-78
2021/07/14 07:16:03;;;;;;;1.53;0.90;;;19.60;98.20;;;;;;4995557;28;20504;-80
2021/07/14 07:18:30;;;;;;;1.60;1.00;;;19.60;98.20;;;;;;4994427;28;20891;-79
2021/07/14 07:20:58;;;;;;;1.60;1.10;;;19.60;98.20;;;;;;4996109;28;20834;-77
2021/07/14 07:23:37;;;;;;;1.57;0.90;;;19.60;98.20;;;;;;4999208;28;20544;-79
2021/07/14 07:26:05;;;;;;;1.57;1.00;;;19.70;98.20;;;;;;4995364;28;20995;-83
2021/07/14 07:28:36;;;;;;;1.53;0.90;;;19.70;98.20;;;;;;4999262;28;20500;-78
2021/07/14 07:31:06;;;;;;;1.53;0.90;;;19.60;98.20;;;;;;4992970;28;20465;-79
2021/07/14 07:33:34;;;;;;;1.57;1.03;;;19.70;98.20;;;;;;4990436;28;20465;-82
2021/07/14 07:36:01;;;;;;;1.50;0.90;;;19.70;98.20;;;;;;4993586;28;20571;-78
2021/07/14 07:38:28;;;;;;;1.53;0.97;;;19.70;98.20;;;;;;4989405;28;20480;-78
2021/07/14 07:40:57;;;;;;;1.50;0.90;;;19.70;98.20;;;;;;4986451;28;20526;-78
2021/07/14 07:43:25;;;;;;;1.57;0.90;;;19.70;98.20;;;;;;4989974;28;20854;-80
2021/07/14 07:45:52;;;;;;;1.50;0.90;;;19.70;98.20;;;;;;4998200;28;20495;-82
2021/07/14 07:51:40;;;;;;;1.70;1.50;;;19.80;98.20;;;;;;4950409;28;20659;-77
2021/07/14 07:54:32;;;;;;;1.50;0.90;;;19.80;98.20;;;;;;4990498;28;20531;-78
2021/07/14 07:57:01;;;;;;;1.53;0.90;;;19.80;98.20;;;;;;4991259;28;20465;-79
2021/07/14 07:59:28;;;;;;;1.57;0.90;;;19.80;98.20;;;;;;4992625;28;20460;-78
2021/07/14 08:01:55;;;;;;;1.57;0.90;;;19.80;98.20;;;;;;4994283;28;20720;-79
2021/07/14 08:04:22;;;;;;;1.50;0.97;;;19.80;98.20;;;;;;4990170;28;20843;-79
2021/07/14 08:07:06;;;;;;;1.50;0.90;;;19.80;98.20;;;;;;4993621;28;20579;-79
2021/07/14 08:09:33;;;;;;;1.60;1.17;;;19.90;98.20;;;;;;4989080;28;20479;-79
2021/07/14 08:12:12;;;;;;;1.57;1.00;;;19.90;98.20;;;;;;4979481;28;20476;-82
2021/07/14 08:14:39;;;;;;;3.03;1.47;;;19.90;98.20;;;;;;4991020;28;20487;-79
2021/07/14 08:17:06;;;;;;;1.53;0.90;;;20.00;98.20;;;;;;4992670;28;20461;-81
2021/07/14 08:19:34;;;;;;;1.60;1.00;;;20.00;98.20;;;;;;4992543;28;20468;-81
2021/07/14 08:22:04;;;;;;;1.50;0.90;;;20.00;98.20;;;;;;4994927;28;20469;-81
2021/07/14 08:24:31;;;;;;;1.57;0.90;;;20.00;98.20;;;;;;4992815;28;20485;-81
2021/07/14 08:26:58;;;;;;;1.57;0.90;;;20.00;98.20;;;;;;4989685;28;20494;-80
2021/07/14 08:29:26;;;;;;;1.53;0.90;;;20.00;98.20;;;;;;4992105;28;20698;-78
2021/07/14 08:31:54;;;;;;;1.50;0.90;;;20.00;98.20;;;;;;4989466;28;20469;-78
2021/07/14 08:34:22;;;;;;;1.57;0.90;;;19.90;98.20;;;;;;4991867;28;20862;-78
2021/07/14 08:36:49;;;;;;;1.60;1.10;;;19.90;98.20;;;;;;4986597;28;20481;-80
2021/07/14 08:39:16;;;;;;;1.57;1.00;;;19.90;98.20;;;;;;4988991;28;20469;-79
2021/07/14 08:41:45;;;;;;;1.53;1.00;;;19.90;98.20;;;;;;4993107;28;20473;-80
2021/07/14 08:44:14;;;;;;;1.50;0.90;;;20.00;98.20;;;;;;4989458;28;20638;-79
2021/07/14 08:46:42;;;;;;;1.53;0.90;;;19.90;98.20;;;;;;4992646;28;20493;-77
2021/07/14 08:49:10;;;;;;;1.53;0.90;;;20.00;98.20;;;;;;4992833;28;20469;-77
2021/07/14 08:51:38;;;;;;;2.13;1.87;;;20.00;98.20;;;;;;4992209;28;20587;-78
2021/07/14 08:54:05;;;;;;;4.23;2.90;;;19.90;98.20;;;;;;5005017;28;20568;-77
2021/07/14 08:56:34;;;;;;;1.57;0.90;;;19.90;98.20;;;;;;4986543;28;20523;-79
2021/07/14 08:59:01;;;;;;;1.53;0.90;;;19.90;98.20;;;;;;5002261;28;21028;-80
2021/07/14 09:01:29;;;;;;;1.53;1.00;;;19.90;98.20;;;;;;4980734;28;20479;-79
2021/07/14 09:03:57;;;;;;;1.50;0.90;;;19.90;98.20;;;;;;5007031;28;20472;-79
2021/07/14 09:06:24;;;;;;;1.50;0.90;;;19.90;98.20;;;;;;4986013;28;20488;-80
2021/07/14 09:08:52;;;;;;;1.53;0.90;;;19.90;98.20;;;;;;5001052;28;20484;-77
2021/07/14 09:11:19;;;;;;;1.53;1.00;;;19.90;98.20;;;;;;4987875;28;20471;-78
2021/07/14 09:13:47;;;;;;;1.50;0.90;;;19.80;98.20;;;;;;5007007;28;20884;-83
2021/07/14 09:16:40;;;;;;;1.50;0.90;;;19.80;98.20;;;;;;4988861;28;20573;-79
2021/07/14 09:19:37;;;;;;;1.53;0.90;;;19.80;98.20;;;;;;4989250;28;20678;-81
2021/07/14 09:22:04;;;;;;;1.57;1.00;;;19.70;98.20;;;;;;4991057;28;20542;-80
2021/07/14 09:24:33;;;;;;;1.53;0.90;;;19.70;98.20;;;;;;4990751;28;20472;-78
2021/07/14 09:27:35;;;;;;;1.50;0.90;;;19.70;98.20;;;;;;4999239;28;20908;-81
2021/07/14 09:30:27;;;;;;;1.53;0.90;;;19.70;98.20;;;;;;4992683;28;20467;-81
2021/07/14 09:32:55;;;;;;;1.53;0.90;;;19.70;98.20;;;;;;5001365;28;20885;-79
2021/07/14 09:35:33;;;;;;;1.57;0.90;;;19.70;98.20;;;;;;4990571;28;20492;-82
2021/07/14 09:38:03;;;;;;;1.57;0.90;;;19.70;98.20;;;;;;5008541;28;20479;-79
2021/07/14 09:40:31;;;;;;;1.57;1.00;;;19.70;98.20;;;;;;4986217;28;20469;-80
2021/07/14 09:43:01;;;;;;;1.53;0.90;;;19.60;98.20;;;;;;5011116;28;20570;-79
2021/07/14 09:45:45;;;;;;;1.57;1.00;;;19.60;98.20;;;;;;4979683;28;20498;-79
2021/07/14 09:48:13;;;;;;;1.57;0.90;;;19.60;98.20;;;;;;4976676;28;20550;-83
2021/07/14 09:50:43;;;;;;;1.53;0.90;;;19.60;98.20;;;;;;4984242;28;20626;-82
2021/07/14 09:53:12;;;;;;;1.57;0.90;;;19.60;98.20;;;;;;5001618;28;20476;-80
2021/07/14 09:55:41;;;;;;;1.50;0.90;;;19.60;98.20;;;;;;4989015;28;20481;-82
2021/07/14 09:58:10;;;;;;;1.57;0.90;;;19.70;98.20;;;;;;4995381;28;20489;-81
2021/07/14 10:00:45;;;;;;;1.57;0.90;;;19.70;98.20;;;;;;4982183;28;20501;-82
2021/07/14 10:03:22;;;;;;;1.50;0.90;;;19.60;98.20;;;;;;5002637;28;21053;-81
2021/07/14 10:05:51;;;;;;;1.53;0.90;;;19.70;98.20;;;;;;4973168;28;20910;-83
2021/07/14 10:08:22;;;;;;;1.53;0.90;;;19.70;98.20;;;;;;5004107;28;20453;-85
2021/07/14 10:10:51;;;;;;;1.50;1.00;;;19.70;98.20;;;;;;4975040;28;20465;-81
2021/07/14 10:13:21;;;;;;;1.53;0.90;;;19.70;98.20;;;;;;4997973;28;20474;-83
2021/07/14 10:16:01;;;;;;;1.53;0.90;;;19.70;98.20;;;;;;4979402;28;20478;-81
2021/07/14 10:18:31;;;;;;;1.50;0.90;;;19.70;98.20;;;;;;5006145;28;21050;-82
2021/07/14 10:21:05;;;;;;;1.50;0.90;;;19.70;98.20;;;;;;4978016;28;20573;-82
2021/07/14 10:23:33;;;;;;;1.57;0.90;;;19.70;98.20;;;;;;5006113;28;20473;-82
2021/07/14 10:26:01;;;;;;;1.50;0.93;;;19.60;98.20;;;;;;4977157;28;20496;-81
2021/07/14 10:28:30;;;;;;;1.50;0.90;;;19.60;98.20;;;;;;4999458;28;20476;-82
2021/07/14 10:30:59;;;;;;;1.53;0.90;;;19.60;98.20;;;;;;4985496;28;20600;-83
2021/07/14 10:33:27;;;;;;;1.57;0.90;;;19.60;98.20;;;;;;5010543;28;20878;-84
2021/07/14 10:35:57;;;;;;;1.53;0.90;;;19.60;98.20;;;;;;4978331;28;20499;-83
2021/07/14 10:38:27;;;;;;;1.53;0.90;;;19.60;98.20;;;;;;5002543;28;20460;-82
2021/07/14 10:40:57;;;;;;;1.57;0.90;;;19.60;98.20;;;;;;4980982;28;20676;-83
2021/07/14 10:43:26;;;;;;;1.53;0.90;;;19.60;98.20;;;;;;5010666;28;20465;-84
2021/07/14 10:45:54;;;;;;;1.53;0.90;;;19.60;98.20;;;;;;4979741;28;20496;-82
2021/07/14 10:48:22;;;;;;;1.53;0.90;;;19.60;98.20;;;;;;5010779;28;21096;-81
2021/07/14 10:50:50;;;;;;;1.53;0.90;;;19.70;98.20;;;;;;4972417;28;20469;-81
2021/07/14 10:53:18;;;;;;;1.50;0.90;;;19.60;98.20;;;;;;5009791;28;20469;-81
2021/07/14 10:55:47;;;;;;;1.50;0.90;;;19.60;98.20;;;;;;4991071;28;20873;-81
2021/07/14 10:58:17;;;;;;;1.50;0.90;;;19.70;98.20;;;;;;4977302;28;20480;-83
2021/07/14 11:00:46;;;;;;;1.53;0.90;;;19.70;98.20;;;;;;4995783;28;21028;-84
2021/07/14 11:03:43;;;;;;;1.50;0.90;;;19.70;98.20;;;;;;4976087;28;20716;-82
2021/07/14 11:06:11;;;;;;;1.50;0.90;;;19.60;98.20;;;;;;4979687;28;20856;-85
2021/07/14 11:08:41;;;;;;;1.50;0.97;;;19.70;98.20;;;;;;5009118;28;20465;-83
2021/07/14 11:11:11;;;;;;;1.50;0.90;;;19.70;98.20;;;;;;4979124;28;20527;-83
2021/07/14 11:13:39;;;;;;;1.60;0.90;;;19.70;98.20;;;;;;5007102;28;20464;-81
2021/07/14 11:16:26;;;;;;;1.90;1.10;;;19.70;98.20;;;;;;4985754;28;20485;-82
2021/07/14 11:19:06;;;;;;;1.50;0.90;;;19.70;98.20;;;;;;5007123;28;20479;-79
2021/07/14 11:21:54;;;;;;;1.50;0.90;;;19.70;98.20;;;;;;4987784;28;21180;-83
2021/07/14 11:25:01;;;;;;;1.53;0.90;;;19.60;98.20;;;;;;4996622;28;20480;-83
2021/07/14 11:27:50;;;;;;;1.53;0.90;;;19.60;98.20;;;;;;4989195;28;20479;-79
2021/07/14 11:30:40;;;;;;;1.57;0.90;;;19.60;98.20;;;;;;4981616;28;20465;-83
2021/07/14 11:33:07;;;;;;;1.50;0.90;;;19.60;98.20;;;;;;5005030;28;20487;-83
2021/07/14 11:35:49;;;;;;;1.53;0.90;;;19.60;98.20;;;;;;4988573;28;21040;-84
2021/07/14 11:38:22;;;;;;;1.60;1.00;;;19.60;98.20;;;;;;4972172;28;20989;-83
2021/07/14 11:40:51;;;;;;;1.53;1.00;;;19.60;98.20;;;;;;4971215;28;20476;-86
2021/07/14 11:43:27;;;;;;;1.53;0.90;;;19.60;98.20;;;;;;5014077;28;20461;-83
2021/07/14 11:45:56;;;;;;;1.57;0.90;;;19.60;98.20;;;;;;4982269;28;20480;-85
2021/07/14 11:48:32;;;;;;;1.53;1.00;;;19.60;98.20;;;;;;4999403;28;20462;-82
2021/07/14 11:51:01;;;;;;;1.53;0.90;;;19.70;98.20;;;;;;4978505;28;20471;-82
2021/07/14 11:53:40;;;;;;;1.60;1.00;;;19.70;98.20;;;;;;5000292;28;20709;-83
2021/07/14 11:56:09;;;;;;;1.53;0.90;;;19.70;98.20;;;;;;4981049;28;20539;-81
2021/07/14 11:59:09;;;;;;;1.57;0.90;;;19.70;98.20;;;;;;5006099;28;20546;-82
2021/07/14 12:01:52;;;;;;;1.57;0.90;;;19.70;98.20;;;;;;4979958;28;20480;-80
2021/07/14 12:04:20;;;;;;;1.50;0.90;;;19.80;98.20;;;;;;5002646;28;20468;-86
2021/07/14 12:06:48;;;;;;;1.53;0.90;;;19.80;98.20;;;;;;4991049;28;20986;-83
2021/07/14 12:09:27;;;;;;;1.90;1.70;;;19.80;98.20;;;;;;5001181;28;20540;-84
2021/07/14 12:11:56;;;;;;;1.57;0.90;;;19.80;98.20;;;;;;4983134;28;20487;-82
2021/07/14 12:14:25;;;;;;;1.53;0.90;;;19.80;98.20;;;;;;4996369;28;20506;-84
2021/07/14 12:16:55;;;;;;;1.60;1.20;;;19.80;98.20;;;;;;4991810;28;20479;-83
2021/07/14 12:19:23;;;;;;;1.50;0.90;;;19.80;98.20;;;;;;4999554;28;20473;-84
2021/07/14 12:21:50;;;;;;;1.50;0.90;;;19.80;98.20;;;;;;4980646;28;20491;-80
2021/07/14 12:24:38;;;;;;;1.53;0.90;;;19.80;98.20;;;;;;4995057;28;20472;-83
2021/07/14 12:27:09;;;;;;;1.70;1.47;;;19.80;98.20;;;;;;4995564;28;20495;-83
2021/07/14 12:29:36;;;;;;;1.53;0.90;;;19.80;98.20;;;;;;4992521;28;20464;-83
2021/07/14 12:32:05;;;;;;;1.53;0.90;;;19.80;98.20;;;;;;4996066;28;20495;-84
2021/07/14 12:34:34;;;;;;;1.60;0.90;;;19.70;98.20;;;;;;4996685;28;20466;-84
2021/07/14 12:37:03;;;;;;;1.57;0.90;;;19.70;98.20;;;;;;4997389;28;20510;-82
2021/07/14 12:39:32;;;;;;;1.50;0.90;;;19.70;98.20;;;;;;5001130;28;20841;-83
2021/07/14 12:42:01;;;;;;;1.50;0.90;;;19.70;98.20;;;;;;4995568;28;20551;-84
2021/07/14 12:44:28;;;;;;;1.53;0.90;;;19.70;98.20;;;;;;4997254;28;20466;-81
2021/07/14 12:46:55;;;;;;;1.53;0.90;;;19.70;98.20;;;;;;4993985;28;20494;-82
2021/07/14 12:49:24;;;;;;;1.53;0.90;;;19.70;98.20;;;;;;5002185;28;20472;-83
2021/07/14 12:52:05;;;;;;;1.53;0.90;;;19.70;98.20;;;;;;4988952;28;20488;-82
2021/07/14 12:54:32;;;;;;;1.57;0.90;;;19.60;98.20;;;;;;4996521;28;20774;-82
2021/07/14 12:57:13;;;;;;;1.53;0.90;;;19.60;98.20;;;;;;4989563;28;20861;-83
2021/07/14 12:59:49;;;;;;;1.53;0.90;;;19.60;98.20;;;;;;4997269;28;20469;-81
2021/07/14 13:02:17;;;;;;;1.50;0.90;;;19.60;98.20;;;;;;4989867;28;20530;-80
2021/07/14 13:04:46;;;;;;;1.60;1.10;;;19.60;98.20;;;;;;4990150;28;20505;-83
2021/07/14 13:07:14;;;;;;;1.50;1.00;;;19.60;98.20;;;;;;4996389;28;20693;-83
2021/07/14 13:09:41;;;;;;;1.50;0.90;;;19.60;98.20;;;;;;4995663;28;20465;-80
2021/07/14 13:12:08;;;;;;;1.50;0.90;;;19.60;98.20;;;;;;4998050;28;20489;-80
2021/07/14 13:14:36;;;;;;;1.53;1.10;;;19.60;98.20;;;;;;4996048;28;20466;-78